No particular awareness of the weather is required.    There are no Weather-warnings


Meteo18 Weather Cam more information Meteo18 Weather Cam


Thunder radar more information blitzortung!


Rain radar more information rain snow radar


Visit our other weather sites:

Template documentation
and downloads

And another site



Weather Underground History page Text

Daily Summary for July 5, 2017 Units:  Metric    English   Both
« Previous Day
Next Day »
Daily Weekly Monthly Yearly Custom
  High: Low: Average:
Temperature: -17.8 °C -8.9 °C -3.7 °C
Dew Point: -17.8 °C -10.6 °C -9.3 °C
Humidity: Humidity % 30 % 58 %
Wind Speed: 0 km/h 0 km/h 4.7 km/h
Wind Gust: 0 km/h - -
Wind:- - SE
Pressure: 0 hPa 34384.8 hPa -
Precipitation: 0 mm    
Historical Graphs
 
 
Tabular Data for July 5, 2017
Time Temperature Dew Point Pressure Wind Wind Speed Wind Gust Humidity Rainfall Rate (Hourly)
-17.8 °C -17.8 °C 0 hPa Calm     Humidity % 0 mm
00:02 -6.5 °C -9.3 °C 34496.6 hPa Calm     73 % 0 mm
00:12 -6.6 °C -9.3 °C 34486.4 hPa Calm     74 % 0 mm
00:17 -6.7 °C -9.4 °C 34496.6 hPa Calm     74 % 0 mm
00:22 -6.9 °C -9.3 °C 34496.6 hPa Calm     76 % 0 mm
00:32 -7.4 °C -9.3 °C 34496.6 hPa Calm     80 % 0 mm
00:37 -7.6 °C -9.4 °C 34496.6 hPa Calm     81 % 0 mm
00:42 -7.4 °C -9.3 °C 34496.6 hPa NNW 2.6 km/h   81 % 0 mm
00:47 -7.2 °C -9.2 °C 34496.6 hPa Calm   5.1 km/h 80 % 0 mm
00:52 -7.2 °C -9.3 °C 34496.6 hPa Calm   5.1 km/h 79 % 0 mm
00:57 -7.3 °C -9.3 °C 34496.6 hPa Calm   5.1 km/h 79 % 0 mm
01:02 -7.4 °C -9.3 °C 34496.6 hPa Calm   5.1 km/h 80 % 0 mm
01:07 -7.4 °C -9.3 °C 34496.6 hPa WNW 2.6 km/h 2.6 km/h 81 % 0 mm
01:12 -7.4 °C -9.3 °C 34496.6 hPa Calm   2.6 km/h 81 % 0 mm
01:17 -7.5 °C -9.3 °C 34486.4 hPa Calm   2.6 km/h 81 % 0 mm
01:22 -7.6 °C -9.4 °C 34486.4 hPa NNE 5.1 km/h 5.1 km/h 81 % 0 mm
01:32 -7.6 °C -9.3 °C 34486.4 hPa NNW 5.1 km/h 5.1 km/h 82 % 0 mm
01:37 -7.5 °C -9.3 °C 34486.4 hPa WNW 2.6 km/h 5.1 km/h 81 % 0 mm
01:42 -7.5 °C -9.3 °C 34486.4 hPa NW 2.6 km/h 5.1 km/h 81 % 0 mm
01:47 -7.4 °C -9.3 °C 34486.4 hPa NW 2.6 km/h 5.1 km/h 81 % 0 mm
01:52 -7.6 °C -9.4 °C 34486.4 hPa NNW 2.6 km/h 5.1 km/h 81 % 0 mm
02:02 -7.7 °C -9.6 °C 34476.3 hPa Calm   5.1 km/h 81 % 0 mm
02:07 -7.9 °C -9.6 °C 34476.3 hPa Calm   5.1 km/h 83 % 0 mm
02:12 -8.1 °C -9.5 °C 34486.4 hPa Calm   5.1 km/h 85 % 0 mm
02:17 -8 °C -9.6 °C 34486.4 hPa Calm   2.6 km/h 83 % 0 mm
02:22 -7.9 °C -9.4 °C 34486.4 hPa Calm   5.1 km/h 85 % 0 mm
02:27 -7.8 °C -9.4 °C 34486.4 hPa WNW 2.6 km/h 5.1 km/h 83 % 0 mm
02:32 -7.8 °C -9.5 °C 34486.4 hPa WNW 2.6 km/h 5.1 km/h 82 % 0 mm
02:37 -7.9 °C -9.6 °C 34486.4 hPa WNW 2.6 km/h 2.6 km/h 83 % 0 mm
02:42 -8 °C -9.6 °C 34486.4 hPa WNW 2.6 km/h 5.1 km/h 83 % 0 mm
02:47 -8.1 °C -9.5 °C 34486.4 hPa WNW 2.6 km/h 5.1 km/h 85 % 0 mm
02:52 -8.2 °C -9.7 °C 34486.4 hPa WNW 2.6 km/h 5.1 km/h 84 % 0 mm
02:57 -8.3 °C -9.7 °C 34486.4 hPa WNW 5.1 km/h 5.1 km/h 85 % 0 mm
03:02 -8.2 °C -9.6 °C 34486.4 hPa WNW 2.6 km/h 5.1 km/h 85 % 0 mm
03:07 -8.3 °C -9.7 °C 34476.3 hPa WNW 5.1 km/h 5.1 km/h 85 % 0 mm
03:12 -8.4 °C -9.7 °C 34476.3 hPa WNW 2.6 km/h 5.1 km/h 86 % 0 mm
03:17 -8.3 °C -9.7 °C 34486.4 hPa Calm   5.1 km/h 85 % 0 mm
03:22 -8.2 °C -9.7 °C 34476.3 hPa Calm   5.1 km/h 84 % 0 mm
03:27 -8.1 °C -9.8 °C 34476.3 hPa NW 2.6 km/h 5.1 km/h 82 % 0 mm
03:32 -8 °C -9.7 °C 34476.3 hPa NW 2.6 km/h 7.7 km/h 82 % 0 mm
03:37 -7.9 °C -9.7 °C 34476.3 hPa NNW 2.6 km/h 7.7 km/h 81 % 0 mm
03:42 -7.8 °C -9.8 °C 34476.3 hPa NNW 2.6 km/h 7.7 km/h 80 % 0 mm
03:47 -7.9 °C -9.8 °C 34476.3 hPa NNW 2.6 km/h 5.1 km/h 80 % 0 mm
03:52 -7.9 °C -9.7 °C 34462.7 hPa Calm   5.1 km/h 81 % 0 mm
03:57 -7.9 °C -9.7 °C 34462.7 hPa North 2.6 km/h 5.1 km/h 81 % 0 mm
04:02 -7.9 °C -9.8 °C 34462.7 hPa North 2.6 km/h 5.1 km/h 80 % 0 mm
04:07 -7.9 °C -9.8 °C 34462.7 hPa Calm   5.1 km/h 80 % 0 mm
04:12 -7.9 °C -9.9 °C 34462.7 hPa NNW 2.6 km/h 5.1 km/h 80 % 0 mm
04:17 -7.9 °C -9.9 °C 34462.7 hPa NW 2.6 km/h 5.1 km/h 80 % 0 mm
04:22 -8.1 °C -9.9 °C 34462.7 hPa Calm   2.6 km/h 81 % 0 mm
04:27 -8.1 °C -9.8 °C 34462.7 hPa Calm   2.6 km/h 82 % 0 mm
04:32 -8.2 °C -9.9 °C 34462.7 hPa North 2.6 km/h 2.6 km/h 82 % 0 mm
04:37 -8.2 °C -9.9 °C 34462.7 hPa NNW 2.6 km/h 5.1 km/h 82 % 0 mm
04:42 -8.3 °C -9.9 °C 34462.7 hPa NNE 2.6 km/h 5.1 km/h 83 % 0 mm
04:47 -8.3 °C -9.9 °C 34462.7 hPa North 2.6 km/h 5.1 km/h 83 % 0 mm
04:52 -8.4 °C -10 °C 34462.7 hPa Calm   5.1 km/h 83 % 0 mm
04:57 -8.4 °C -10 °C 34452.6 hPa North 2.6 km/h 5.1 km/h 83 % 0 mm
05:02 -8.4 °C -10 °C 34452.6 hPa North 2.6 km/h 5.1 km/h 83 % 0 mm
05:07 -8.4 °C -10 °C 34452.6 hPa North 2.6 km/h 5.1 km/h 83 % 0 mm
05:12 -8.4 °C -10 °C 34452.6 hPa Calm   5.1 km/h 83 % 0 mm
05:17 -8.4 °C -9.9 °C 34452.6 hPa Calm   5.1 km/h 84 % 0 mm
05:22 -8.4 °C -9.9 °C 34452.6 hPa NNW 2.6 km/h 5.1 km/h 84 % 0 mm
05:32 -8.5 °C -10 °C 34452.6 hPa Calm   5.1 km/h 84 % 0 mm
05:37 -8.5 °C -10 °C 34452.6 hPa Calm   5.1 km/h 84 % 0 mm
05:42 -8.6 °C -10.1 °C 34452.6 hPa North 2.6 km/h 5.1 km/h 84 % 0 mm
05:47 -8.7 °C -10.1 °C 34452.6 hPa NNE 2.6 km/h 5.1 km/h 85 % 0 mm
05:52 -8.7 °C -10.1 °C 34452.6 hPa Calm   5.1 km/h 85 % 0 mm
05:57 -8.8 °C -10.2 °C 34452.6 hPa North 5.1 km/h 5.1 km/h 85 % 0 mm
06:02 -8.9 °C -10.2 °C 34452.6 hPa NNW 2.6 km/h 5.1 km/h 86 % 0 mm
06:07 -8.9 °C -10.2 °C 34452.6 hPa NNW 2.6 km/h 7.7 km/h 86 % 0 mm
06:12 -8.9 °C -10.2 °C 34452.6 hPa NNW 2.6 km/h 7.7 km/h 87 % 0 mm
06:17 -8.8 °C -10.1 °C 34452.6 hPa NNW 2.6 km/h 5.1 km/h 87 % 0 mm
06:22 -8.8 °C -10.1 °C 34452.6 hPa North 2.6 km/h 5.1 km/h 86 % 0 mm
06:32 -8.9 °C -10.2 °C 34452.6 hPa North 2.6 km/h 2.6 km/h 87 % 0 mm
06:37 -8.9 °C -10.1 °C 34452.6 hPa Calm   2.6 km/h 87 % 0 mm
06:42 -8.7 °C -9.9 °C 34452.6 hPa NNW 2.6 km/h 5.1 km/h 87 % 0 mm
06:47 -8.6 °C -9.9 °C 34452.6 hPa North 7.7 km/h 7.7 km/h 86 % 0 mm
06:52 -8.5 °C -9.9 °C 34452.6 hPa NNE 10.3 km/h 12.9 km/h 85 % 0 mm
07:02 -8.2 °C -9.8 °C 34462.7 hPa NNE 5.1 km/h 12.9 km/h 83 % 0 mm
07:12 -7.9 °C -9.6 °C 34462.7 hPa North 5.1 km/h 7.7 km/h 82 % 0 mm
07:17 -7.7 °C -9.4 °C 34462.7 hPa Calm   7.7 km/h 82 % 0 mm
07:22 -7.6 °C -9.4 °C 34462.7 hPa North 2.6 km/h 7.7 km/h 81 % 0 mm
07:27 -7.4 °C -9.2 °C 34462.7 hPa North 2.6 km/h 7.7 km/h 81 % 0 mm
07:37 -7.2 °C -9.2 °C 34462.7 hPa North 5.1 km/h 7.7 km/h 79 % 0 mm
07:42 -7.1 °C -9.2 °C 34452.6 hPa NNE 2.6 km/h 7.7 km/h 79 % 0 mm
07:52 -6.8 °C -8.9 °C 34462.7 hPa Calm   5.1 km/h 79 % 0 mm
08:02 -6.1 °C -8.7 °C 34452.6 hPa Calm   2.6 km/h 74 % 0 mm
08:12 -6.1 °C -8.8 °C 34452.6 hPa ENE 5.1 km/h 7.7 km/h 73 % 0 mm
08:17 -6 °C -8.8 °C 34452.6 hPa NE 2.6 km/h 10.3 km/h 73 % 0 mm
08:22 -5.9 °C -8.9 °C 34462.7 hPa NNE 5.1 km/h 12.9 km/h 72 % 0 mm
08:32 -5.7 °C -8.8 °C 34462.7 hPa ENE 5.1 km/h 12.9 km/h 71 % 0 mm
08:42 -5.4 °C -8.6 °C 34462.7 hPa ENE 7.7 km/h 15.6 km/h 70 % 0 mm
08:47 -5.4 °C -8.9 °C 34462.7 hPa ENE 12.9 km/h 15.6 km/h 67 % 0 mm
08:52 -5.3 °C -9.1 °C 34462.7 hPa ENE 7.7 km/h 18.2 km/h 66 % 0 mm
08:57 -5.2 °C -8.9 °C 34462.7 hPa NE 7.7 km/h 18.2 km/h 66 % 0 mm
09:02 -5.1 °C -8.9 °C 34462.7 hPa NE 5.1 km/h 18.2 km/h 65 % 0 mm
09:07 -5.1 °C -9.1 °C 34462.7 hPa ENE 10.3 km/h 15.6 km/h 64 % 0 mm
09:12 -4.9 °C -8.9 °C 34462.7 hPa ENE 15.6 km/h 15.6 km/h 64 % 0 mm
09:17 -4.8 °C -9.2 °C 34462.7 hPa East 5.1 km/h 15.6 km/h 61 % 0 mm
09:22 -4.7 °C -9.1 °C 34462.7 hPa ENE 2.6 km/h 15.6 km/h 61 % 0 mm
09:32 -4.6 °C -9.1 °C 34462.7 hPa ENE 7.7 km/h 15.6 km/h 60 % 0 mm
09:42 -4.5 °C -9.2 °C 34462.7 hPa East 5.1 km/h 23.3 km/h 59 % 0 mm
09:47 -4.3 °C -9.1 °C 34462.7 hPa ENE 2.6 km/h 23.3 km/h 59 % 0 mm
09:52 -4.3 °C -8.9 °C 34462.7 hPa ENE 5.1 km/h 23.3 km/h 60 % 0 mm
09:57 -4.2 °C -8.8 °C 34462.7 hPa East 5.1 km/h 18.2 km/h 60 % 0 mm
10:02 -4.1 °C -8.8 °C 34462.7 hPa ESE 5.1 km/h 18.2 km/h 59 % 0 mm
10:12 -3.7 °C -8.9 °C 34462.7 hPa East 7.7 km/h 15.6 km/h 56 % 0 mm
10:17 -3.6 °C -8.8 °C 34462.7 hPa SE 5.1 km/h 20.8 km/h 56 % 0 mm
10:22 -3.6 °C -8.8 °C 34462.7 hPa SE 7.7 km/h 20.8 km/h 56 % 0 mm
10:32 -3.4 °C -8.7 °C 34462.7 hPa ENE 5.1 km/h 20.8 km/h 56 % 0 mm
10:37 -3.4 °C -8.8 °C 34462.7 hPa ENE 12.9 km/h 20.8 km/h 55 % 0 mm
10:42 -3.4 °C -8.9 °C 34462.7 hPa East 5.1 km/h 20.8 km/h 54 % 0 mm
10:47 -3.2 °C -8.8 °C 34462.7 hPa Calm   20.8 km/h 54 % 0 mm
10:52 -3.1 °C -8.9 °C 34462.7 hPa East 10.3 km/h 20.8 km/h 53 % 0 mm
10:57 -3 °C -8.8 °C 34462.7 hPa ENE 5.1 km/h 18.2 km/h 53 % 0 mm
11:02 -3 °C -8.8 °C 34462.7 hPa NE 10.3 km/h 18.2 km/h 53 % 0 mm
11:07 -3 °C -8.8 °C 34462.7 hPa ENE 5.1 km/h 20.8 km/h 53 % 0 mm
11:12 -2.9 °C -9.1 °C 34462.7 hPa ENE 7.7 km/h 23.3 km/h 51 % 0 mm
11:17 -2.9 °C -8.9 °C 34462.7 hPa NE 7.7 km/h 23.3 km/h 52 % 0 mm
11:22 -2.8 °C -8.6 °C 34462.7 hPa East 10.3 km/h 18.2 km/h 53 % 0 mm
11:27 -2.7 °C -8.8 °C 34462.7 hPa ENE 5.1 km/h 18.2 km/h 51 % 0 mm
11:32 -2.5 °C -8.8 °C 34452.6 hPa SSW 2.6 km/h 20.8 km/h 50 % 0 mm
11:37 -2.4 °C -8.7 °C 34452.6 hPa ENE 12.9 km/h 20.8 km/h 50 % 0 mm
11:42 -2.4 °C -8.8 °C 34452.6 hPa SSE 5.1 km/h 20.8 km/h 50 % 0 mm
11:47 -2.4 °C -8.6 °C 34452.6 hPa ENE 7.7 km/h 25.9 km/h 51 % 0 mm
11:52 -2.3 °C -8.4 °C 34452.6 hPa ENE 15.6 km/h 25.9 km/h 51 % 0 mm
11:57 -2.1 °C -8.4 °C 34452.6 hPa ENE 5.1 km/h 25.9 km/h 50 % 0 mm
12:02 -2 °C -8.5 °C 34452.6 hPa ENE 7.7 km/h 20.8 km/h 49 % 0 mm
12:07 -2 °C -8.7 °C 34452.6 hPa ENE 7.7 km/h 20.8 km/h 48 % 0 mm
12:12 -1.9 °C -8.7 °C 34452.6 hPa NE 18.2 km/h 23.3 km/h 48 % 0 mm
12:17 -1.8 °C -9.1 °C 34452.6 hPa East 23.3 km/h 23.3 km/h 45 % 0 mm
12:22 -1.8 °C -8.9 °C 34452.6 hPa NE 15.6 km/h 28.5 km/h 46 % 0 mm
12:27 -1.7 °C -8.9 °C 34452.6 hPa ENE 15.6 km/h 28.5 km/h 45 % 0 mm
12:32 -1.6 °C -8.7 °C 34452.6 hPa NE 18.2 km/h 28.5 km/h 46 % 0 mm
12:37 -1.6 °C -8.7 °C 34442.4 hPa ENE 2.6 km/h 25.9 km/h 46 % 0 mm
12:42 -1.4 °C -9.2 °C 34452.6 hPa ENE 18.2 km/h 36.2 km/h 43 % 0 mm
12:47 -1.5 °C -9.2 °C 34442.4 hPa ENE 10.3 km/h 36.2 km/h 43 % 0 mm
12:52 -1.4 °C -9.2 °C 34442.4 hPa ENE 12.9 km/h 36.2 km/h 43 % 0 mm
12:57 -1.2 °C -9.1 °C 34442.4 hPa East 10.3 km/h 33.6 km/h 42 % 0 mm
13:02 -0.9 °C -9.1 °C 34442.4 hPa East 5.1 km/h 33.6 km/h 41 % 0 mm
13:07 -0.9 °C -9.3 °C 34442.4 hPa NE 5.1 km/h 20.8 km/h 40 % 0 mm
13:12 -1 °C -9.2 °C 34442.4 hPa NNE 10.3 km/h 25.9 km/h 41 % 0 mm
13:17 -0.8 °C -9 °C 34442.4 hPa ENE 5.1 km/h 25.9 km/h 41 % 0 mm
13:22 -0.8 °C -9.2 °C 34442.4 hPa East 31.1 km/h 31.1 km/h 40 % 0 mm
13:27 -0.7 °C -9.2 °C 34442.4 hPa East 18.2 km/h 31.1 km/h 40 % 0 mm
13:32 -1 °C -9.6 °C 34442.4 hPa NNE 10.3 km/h 31.1 km/h 39 % 0 mm
13:37 -0.9 °C -9.3 °C 34442.4 hPa ESE 2.6 km/h 31.1 km/h 40 % 0 mm
13:42 -0.7 °C -9.3 °C 34442.4 hPa ENE 12.9 km/h 28.5 km/h 39 % 0 mm
13:47 -0.7 °C -9.3 °C 34442.4 hPa ENE 15.6 km/h 20.8 km/h 39 % 0 mm
13:52 -0.6 °C -9.3 °C 34442.4 hPa East 2.6 km/h 31.1 km/h 39 % 0 mm
13:57 -0.7 °C -9.6 °C 34442.4 hPa East 5.1 km/h 31.1 km/h 38 % 0 mm
14:02 -0.5 °C -9.4 °C 34428.8 hPa SE 7.7 km/h 31.1 km/h 38 % 0 mm
14:07 -0.4 °C -9.3 °C 34428.8 hPa East 10.3 km/h 23.3 km/h 38 % 0 mm
14:12 -0.4 °C -9.3 °C 34428.8 hPa NE 7.7 km/h 23.3 km/h 38 % 0 mm
14:22 -0.1 °C -9.1 °C 34428.8 hPa ENE 10.3 km/h 23.3 km/h 38 % 0 mm
14:27 -0.1 °C -9 °C 34418.7 hPa SE 5.1 km/h 20.8 km/h 38 % 0 mm
14:32 0.1 °C -9.1 °C 34428.8 hPa East 10.3 km/h 25.9 km/h 37 % 0 mm
14:37 0.1 °C -9.1 °C 34428.8 hPa NE 5.1 km/h 31.1 km/h 37 % 0 mm
14:42 0.3 °C -9.4 °C 34418.7 hPa SSE 12.9 km/h 31.1 km/h 35 % 0 mm
14:47 0.3 °C -9.4 °C 34418.7 hPa East 2.6 km/h 23.3 km/h 35 % 0 mm
14:52 0.4 °C -9.6 °C 34418.7 hPa ESE 7.7 km/h 23.3 km/h 34 % 0 mm
14:57 0.4 °C -9.5 °C 34418.7 hPa Calm   23.3 km/h 34 % 0 mm
15:02 0.5 °C -9.4 °C 34418.7 hPa ESE 5.1 km/h 18.2 km/h 34 % 0 mm
15:12 0.6 °C -9.6 °C 34405.1 hPa ESE 5.1 km/h 15.6 km/h 33 % 0 mm
15:22 0.4 °C -10.6 °C 34405.1 hPa East 5.1 km/h 20.8 km/h 30 % 0 mm
15:27 0.3 °C -10.4 °C 34405.1 hPa NE 7.7 km/h 23.3 km/h 31 % 0 mm
15:32 0.2 °C -10.2 °C 34405.1 hPa ESE 7.7 km/h 23.3 km/h 32 % 0 mm
15:37 0.2 °C -10.2 °C 34405.1 hPa NNE 7.7 km/h 25.9 km/h 32 % 0 mm
15:42 0.4 °C -10.1 °C 34405.1 hPa SE 10.3 km/h 25.9 km/h 32 % 0 mm
15:47 0.4 °C -9.8 °C 34405.1 hPa ENE 5.1 km/h 25.9 km/h 33 % 0 mm
15:52 0.6 °C -9.2 °C 34405.1 hPa East 10.3 km/h 20.8 km/h 35 % 0 mm
15:57 0.6 °C -9.6 °C 34405.1 hPa SE 12.9 km/h 20.8 km/h 33 % 0 mm
16:02 0.7 °C -9.8 °C 34405.1 hPa Calm   20.8 km/h 32 % 0 mm
16:12 0.7 °C -9.6 °C 34395 hPa East 5.1 km/h 23.3 km/h 33 % 0 mm
16:17 0.6 °C -9.4 °C 34395 hPa ENE 10.3 km/h 23.3 km/h 34 % 0 mm
16:22 0.6 °C -9.1 °C 34395 hPa ESE 2.6 km/h 23.3 km/h 35 % 0 mm
16:27 0.6 °C -9.4 °C 34395 hPa ENE 10.3 km/h 28.5 km/h 34 % 0 mm
16:32 0.6 °C -9.4 °C 34395 hPa SE 2.6 km/h 28.5 km/h 34 % 0 mm
16:37 0.8 °C -9.2 °C 34395 hPa SSW 2.6 km/h 28.5 km/h 34 % 0 mm
16:42 0.8 °C -9.7 °C 34395 hPa SSW 10.3 km/h 18.2 km/h 32 % 0 mm
16:47 0.8 °C -8.9 °C 34395 hPa SW 5.1 km/h 23.3 km/h 35 % 0 mm
16:52 1 °C -9.1 °C 34395 hPa East 5.1 km/h 23.3 km/h 34 % 0 mm
16:57 1 °C -9.3 °C 34395 hPa SE 7.7 km/h 28.5 km/h 33 % 0 mm
17:02 1.1 °C -8.9 °C 34395 hPa South 5.1 km/h 28.5 km/h 34 % 0 mm
17:12 0.9 °C -9.1 °C 34395 hPa SSW 5.1 km/h 23.3 km/h 34 % 0 mm
17:17 1.1 °C -9 °C 34384.8 hPa SW 10.3 km/h 18.2 km/h 34 % 0 mm
17:22 1 °C -8.8 °C 34384.8 hPa East 2.6 km/h 20.8 km/h 35 % 0 mm
17:27 1.2 °C -8.6 °C 34384.8 hPa ESE 7.7 km/h 20.8 km/h 35 % 0 mm
17:32 1.1 °C -9.4 °C 34384.8 hPa SW 7.7 km/h 23.3 km/h 32 % 0 mm
17:37 1.1 °C -8.9 °C 34384.8 hPa East 12.9 km/h 23.3 km/h 34 % 0 mm
17:42 1.1 °C -9.4 °C 34384.8 hPa ENE 5.1 km/h 23.3 km/h 32 % 0 mm
17:47 1.1 °C -9.2 °C 34384.8 hPa SSW 7.7 km/h 20.8 km/h 33 % 0 mm
17:52 1.1 °C -8.5 °C 34384.8 hPa SSE 10.3 km/h 20.8 km/h 36 % 0 mm
17:57 1.1 °C -9.4 °C 34384.8 hPa ENE 5.1 km/h 20.8 km/h 32 % 0 mm
18:02 1 °C -9.3 °C 34384.8 hPa ENE 7.7 km/h 18.2 km/h 33 % 0 mm
18:07 0.9 °C -9.6 °C 34384.8 hPa WSW 5.1 km/h 20.8 km/h 32 % 0 mm
18:12 0.8 °C -9.4 °C 34384.8 hPa SSW 5.1 km/h 20.8 km/h 33 % 0 mm
18:17 0.9 °C -9.1 °C 34384.8 hPa South 2.6 km/h 20.8 km/h 34 % 0 mm
18:22 0.9 °C -9.1 °C 34384.8 hPa SSW 10.3 km/h 15.6 km/h 34 % 0 mm
18:27 0.7 °C -9.1 °C 34384.8 hPa SE 2.6 km/h 15.6 km/h 35 % 0 mm
18:32 0.7 °C -9.1 °C 34384.8 hPa Calm   18.2 km/h 35 % 0 mm
18:42 0.9 °C -9.4 °C 34384.8 hPa Calm   18.2 km/h 33 % 0 mm
18:47 1 °C -9.6 °C 34384.8 hPa East 5.1 km/h 15.6 km/h 32 % 0 mm
18:52 0.8 °C -10 °C 34384.8 hPa SSE 2.6 km/h 15.6 km/h 31 % 0 mm
18:57 0.8 °C -9.7 °C 34384.8 hPa SE 2.6 km/h 15.6 km/h 32 % 0 mm
19:02 0.7 °C -9.8 °C 34384.8 hPa Calm   15.6 km/h 32 % 0 mm
19:07 0.6 °C -9.1 °C 34384.8 hPa SSE 5.1 km/h 12.9 km/h 35 % 0 mm
19:12 0.6 °C -9.7 °C 34384.8 hPa ENE 2.6 km/h 12.9 km/h 33 % 0 mm
19:17 0.5 °C -9.7 °C 34384.8 hPa ENE 10.3 km/h 15.6 km/h 33 % 0 mm
19:22 0.4 °C -9.8 °C 34384.8 hPa East 5.1 km/h 15.6 km/h 33 % 0 mm
19:27 0.3 °C -9.7 °C 34384.8 hPa East 2.6 km/h 15.6 km/h 34 % 0 mm
19:32 0.2 °C -9.8 °C 34384.8 hPa ENE 5.1 km/h 15.6 km/h 34 % 0 mm
19:37 0.1 °C -9.6 °C 34384.8 hPa East 10.3 km/h 15.6 km/h 35 % 0 mm
19:42 0.2 °C -9.5 °C 34384.8 hPa ENE 5.1 km/h 15.6 km/h 35 % 0 mm
19:47 0.2 °C -9.4 °C 34384.8 hPa Calm   15.6 km/h 35 % 0 mm
19:52 0.3 °C -9.4 °C 34384.8 hPa Calm   15.6 km/h 35 % 0 mm
19:57 0.3 °C -9.2 °C 34384.8 hPa ESE 7.7 km/h 15.6 km/h 36 % 0 mm
20:02 0.2 °C -9 °C 34384.8 hPa East 10.3 km/h 12.9 km/h 37 % 0 mm
20:12 -0.2 °C -8.9 °C 34384.8 hPa ENE 7.7 km/h 15.6 km/h 39 % 0 mm
20:17 -0.4 °C -8.8 °C 34395 hPa East 2.6 km/h 15.6 km/h 40 % 0 mm
20:22 -0.6 °C -8.8 °C 34395 hPa East 7.7 km/h 12.9 km/h 41 % 0 mm
20:27 -0.7 °C -8.7 °C 34395 hPa ESE 2.6 km/h 12.9 km/h 42 % 0 mm
20:32 -0.8 °C -8.6 °C 34395 hPa East 7.7 km/h 12.9 km/h 43 % 0 mm
20:37 -0.8 °C -8.6 °C 34395 hPa East 5.1 km/h 12.9 km/h 43 % 0 mm
20:42 -0.8 °C -8.6 °C 34395 hPa East 5.1 km/h 10.3 km/h 43 % 0 mm
20:47 -0.8 °C -8.8 °C 34395 hPa East 7.7 km/h 15.6 km/h 42 % 0 mm
20:52 -0.7 °C -8.7 °C 34395 hPa Calm   15.6 km/h 42 % 0 mm
21:02 -0.8 °C -8.6 °C 34395 hPa Calm   7.7 km/h 43 % 0 mm
21:07 -0.8 °C -8.4 °C 34395 hPa Calm   7.7 km/h 44 % 0 mm
21:12 -0.9 °C -8.5 °C 34395 hPa Calm   5.1 km/h 44 % 0 mm
21:17 -1.1 °C -8.4 °C 34395 hPa Calm     45 % 0 mm
21:22 -1.2 °C -8.3 °C 34395 hPa Calm     46 % 0 mm
21:32 -1.3 °C -8.2 °C 34395 hPa Calm     47 % 0 mm
21:37 -1.5 °C -8.2 °C 34395 hPa Calm     48 % 0 mm
21:47 -2.1 °C -8.2 °C 34395 hPa Calm     51 % 0 mm
21:52 -2.4 °C -8.2 °C 34395 hPa Calm     53 % 0 mm
21:57 -2.7 °C -8.4 °C 34395 hPa Calm     53 % 0 mm
22:02 -2.8 °C -8.4 °C 34395 hPa Calm     54 % 0 mm
22:07 -2.9 °C -8.6 °C 34395 hPa Calm     54 % 0 mm
22:12 -3.1 °C -8.2 °C 34405.1 hPa Calm     57 % 0 mm
22:17 -3.4 °C -8.4 °C 34405.1 hPa Calm     58 % 0 mm
22:22 -3.7 °C -8.3 °C 34405.1 hPa Calm     60 % 0 mm
22:32 -3.9 °C -8.4 °C 34405.1 hPa Calm     61 % 0 mm
22:37 -4.1 °C -8.4 °C 34405.1 hPa Calm     62 % 0 mm
22:42 -4.2 °C -8.6 °C 34405.1 hPa Calm     62 % 0 mm
22:47 -4.3 °C -8.6 °C 34405.1 hPa Calm     62 % 0 mm
22:52 -4.3 °C -8.6 °C 34405.1 hPa Calm     62 % 0 mm
22:57 -4.3 °C -8.6 °C 34405.1 hPa Calm     62 % 0 mm
23:02 -4.3 °C -8.6 °C 34405.1 hPa Calm     62 % 0 mm
23:07 -4.3 °C -8.3 °C 34405.1 hPa Calm     64 % 0 mm
23:12 -4.6 °C -8.6 °C 34418.7 hPa Calm     64 % 0 mm
23:17 -4.8 °C -8.7 °C 34418.7 hPa Calm     65 % 0 mm
23:22 -4.9 °C -8.6 °C 34405.1 hPa Calm     66 % 0 mm
23:27 -5 °C -8.7 °C 34418.7 hPa Calm     66 % 0 mm
23:32 -4.9 °C -8.6 °C 34418.7 hPa NW 2.6 km/h   66 % 0 mm
23:37 -4.8 °C -8.6 °C 34418.7 hPa NNW 2.6 km/h 5.1 km/h 66 % 0 mm
23:42 -4.8 °C -8.6 °C 34418.7 hPa Calm   5.1 km/h 66 % 0 mm
23:47 -4.9 °C -8.6 °C 34418.7 hPa Calm   5.1 km/h 66 % 0 mm
23:52 -5.1 °C -8.5 °C 34418.7 hPa North 2.6 km/h 5.1 km/h 68 % 0 mm
23:57 -4.9 °C -8.6 °C 34418.7 hPa North 2.6 km/h 5.1 km/h 67 % 0 mm
Meteo18
Compliments of Weather Underground - 4 mb

Script developed by  Jim McMurry - jmcmurry@mwt.net Adapted for the template by  Wim van der Kuil - Leuven-Template.eu

You find our weather info also at:

European Weather Network

Weather Underground

Equipment we use:

Weather-station
Davis Vue

Weather-program
Meteobridge

Weather-server
Raspberry PI 2 B+

Provider
1 and 1

Davis Vue

Meteobridge

Raspberry PI 2 B+

1 and 1